Time;durP1;ratioP1;P1;durP2;ratioP2;P2;SDS_P1;SDS_P2;PMS_P1;PMS_P2;Temp;Humidity;BMP_temperature;BMP_pressure;BME280_temperature;BME280_humidity;BME280_pressure;Samples;Min_cycle;Max_cycle;Signal;HPM_P1;HPM_P2
2024/02/15 00:00:45;;;;;;;6.00;4.40;;;11.30;99.90;;;;;;5022178;28;20454;-75
2024/02/15 00:03:13;;;;;;;7.83;4.90;;;11.20;99.90;;;;;;5027010;28;20290;-75
2024/02/15 00:05:39;;;;;;;6.20;4.37;;;11.30;99.90;;;;;;5022124;28;20480;-76
2024/02/15 00:08:06;;;;;;;7.43;4.93;;;11.20;99.90;;;;;;5044653;28;20492;-75
2024/02/15 00:10:32;;;;;;;9.63;5.17;;;11.20;99.90;;;;;;5040678;28;20908;-76
2024/02/15 00:12:58;;;;;;;6.53;5.13;;;11.20;99.90;;;;;;5043298;28;20541;-75
2024/02/15 00:15:23;;;;;;;7.30;5.30;;;11.20;99.90;;;;;;5043001;28;20215;-76
2024/02/15 00:17:49;;;;;;;7.67;4.90;;;11.20;99.90;;;;;;5036950;28;20513;-75
2024/02/15 00:20:17;;;;;;;5.83;5.07;;;11.20;99.90;;;;;;5060120;28;20216;-75
2024/02/15 00:22:43;;;;;;;6.20;5.13;;;11.20;99.90;;;;;;5040038;28;20222;-76
2024/02/15 00:25:09;;;;;;;8.60;5.27;;;11.20;99.90;;;;;;5041114;28;20863;-75
2024/02/15 00:27:35;;;;;;;9.93;5.80;;;11.20;99.90;;;;;;5040341;28;20521;-75
2024/02/15 00:30:03;;;;;;;8.93;5.23;;;11.20;99.90;;;;;;5042919;28;20215;-76
2024/02/15 00:32:29;;;;;;;6.70;5.40;;;11.20;99.90;;;;;;5039286;28;20454;-76
2024/02/15 00:34:55;;;;;;;6.17;5.20;;;11.10;99.90;;;;;;5025208;28;20445;-76
2024/02/15 00:37:20;;;;;;;7.80;5.97;;;11.10;99.90;;;;;;5041369;28;20545;-76
2024/02/15 00:39:46;;;;;;;6.20;4.70;;;11.20;99.90;;;;;;5037721;28;20224;-75
2024/02/15 00:42:12;;;;;;;5.97;4.90;;;11.10;99.90;;;;;;5042654;28;20216;-75
2024/02/15 00:44:39;;;;;;;6.40;5.33;;;11.20;99.90;;;;;;5038930;28;20212;-76
2024/02/15 00:47:05;;;;;;;8.23;5.30;;;11.10;99.90;;;;;;5041225;28;20442;-75
2024/02/15 00:49:31;;;;;;;7.03;4.50;;;11.10;99.90;;;;;;5038491;28;20443;-76
2024/02/15 00:51:57;;;;;;;7.20;5.00;;;11.10;99.90;;;;;;5042882;28;20216;-76
2024/02/15 00:54:23;;;;;;;5.70;4.83;;;11.10;99.90;;;;;;5024914;28;20541;-76
2024/02/15 00:56:48;;;;;;;6.77;4.30;;;11.10;99.90;;;;;;5037753;28;20224;-76
2024/02/15 00:59:14;;;;;;;6.97;5.00;;;11.10;99.90;;;;;;5042601;28;20273;-76
2024/02/15 01:01:40;;;;;;;6.13;5.27;;;11.10;99.90;;;;;;5024318;28;20216;-76
2024/02/15 01:04:06;;;;;;;7.00;4.60;;;11.10;99.90;;;;;;5042172;28;20219;-76
2024/02/15 01:06:32;;;;;;;5.97;4.67;;;11.10;99.90;;;;;;5053058;28;20470;-75
2024/02/15 01:09:01;;;;;;;4.67;4.17;;;11.10;99.90;;;;;;5041605;28;20220;-76
2024/02/15 01:11:28;;;;;;;7.57;5.13;;;11.10;99.90;;;;;;5038398;28;20464;-76
2024/02/15 01:13:54;;;;;;;6.33;4.10;;;11.10;99.90;;;;;;5038620;28;20462;-75
2024/02/15 01:16:21;;;;;;;7.40;5.00;;;11.00;99.90;;;;;;5041734;28;20454;-74
2024/02/15 01:18:47;;;;;;;6.00;5.13;;;11.00;99.90;;;;;;5021578;28;20486;-76
2024/02/15 01:21:13;;;;;;;9.23;5.20;;;11.00;99.90;;;;;;5034800;28;20537;-74
2024/02/15 01:23:39;;;;;;;5.90;4.83;;;11.00;99.90;;;;;;5035667;28;20220;-75
2024/02/15 01:26:04;;;;;;;9.07;5.13;;;11.00;99.90;;;;;;5041272;28;20294;-76
2024/02/15 01:28:30;;;;;;;14.17;4.87;;;11.00;99.90;;;;;;5027701;28;20494;-76
2024/02/15 01:30:56;;;;;;;8.10;5.17;;;11.00;99.90;;;;;;5034278;28;20224;-75
2024/02/15 01:33:22;;;;;;;6.23;4.80;;;11.00;99.90;;;;;;5055012;28;20212;-75
2024/02/15 01:35:48;;;;;;;7.83;5.43;;;10.90;99.90;;;;;;5054834;28;20216;-76
2024/02/15 01:38:14;;;;;;;7.57;5.43;;;10.90;99.90;;;;;;5042969;28;20208;-75
2024/02/15 01:40:40;;;;;;;9.30;4.90;;;10.90;99.90;;;;;;5036321;28;20519;-76
2024/02/15 01:43:06;;;;;;;5.40;4.87;;;10.90;99.90;;;;;;5041518;28;20458;-75
2024/02/15 01:45:32;;;;;;;5.50;4.80;;;10.90;99.90;;;;;;5054985;28;20223;-75
2024/02/15 01:47:58;;;;;;;10.13;5.13;;;10.90;99.90;;;;;;5044731;28;20524;-75
2024/02/15 01:50:24;;;;;;;6.03;4.77;;;10.90;99.90;;;;;;5043848;28;20302;-75
2024/02/15 01:52:54;;;;;;;9.50;5.23;;;10.90;99.90;;;;;;5037316;28;20470;-75
2024/02/15 01:55:20;;;;;;;9.53;4.87;;;10.90;99.90;;;;;;5035391;28;20447;-75
2024/02/15 01:57:48;;;;;;;10.53;5.60;;;10.90;99.90;;;;;;5049691;28;20466;-75
2024/02/15 02:00:17;;;;;;;6.17;5.57;;;10.90;99.90;;;;;;5024067;28;20451;-75
2024/02/15 02:02:44;;;;;;;6.90;5.17;;;10.90;99.90;;;;;;5038294;28;20446;-76
2024/02/15 02:05:10;;;;;;;7.33;5.67;;;10.80;99.90;;;;;;5045076;28;20568;-76
2024/02/15 02:07:37;;;;;;;13.60;5.67;;;10.80;99.90;;;;;;5025487;28;20539;-75
2024/02/15 02:10:04;;;;;;;7.20;5.90;;;10.80;99.90;;;;;;5040164;28;20690;-75
2024/02/15 02:12:30;;;;;;;5.47;4.40;;;10.80;99.90;;;;;;5043356;28;20542;-75
2024/02/15 02:14:56;;;;;;;6.20;4.77;;;10.80;99.90;;;;;;5047286;28;20471;-75
2024/02/15 02:17:22;;;;;;;7.60;5.50;;;10.80;99.90;;;;;;5048292;28;20462;-75
2024/02/15 02:19:50;;;;;;;11.40;5.30;;;10.80;99.90;;;;;;5031191;28;20757;-75
2024/02/15 02:22:17;;;;;;;5.93;5.03;;;10.80;99.90;;;;;;5054784;28;20219;-74
2024/02/15 02:25:12;;;;;;;7.00;5.63;;;10.80;99.90;;;;;;5046899;28;20454;-75
2024/02/15 02:27:39;;;;;;;5.90;5.30;;;10.80;99.90;;;;;;5029392;28;21070;-75
2024/02/15 02:30:17;;;;;;;6.03;5.27;;;10.80;99.90;;;;;;5044228;28;20482;-75
2024/02/15 02:32:42;;;;;;;6.97;6.23;;;10.80;99.90;;;;;;5035996;28;21052;-75
2024/02/15 02:35:11;;;;;;;8.17;5.97;;;10.80;99.90;;;;;;5027657;28;20486;-75
2024/02/15 02:37:38;;;;;;;11.30;6.57;;;10.80;99.90;;;;;;5040435;28;20263;-75
2024/02/15 02:40:08;;;;;;;6.03;4.70;;;10.80;99.90;;;;;;5054864;28;20549;-76
2024/02/15 02:42:46;;;;;;;8.07;6.00;;;10.80;99.90;;;;;;5040939;28;20949;-75
2024/02/15 02:45:11;;;;;;;9.00;5.20;;;10.80;99.90;;;;;;5043067;28;20484;-76
2024/02/15 02:47:37;;;;;;;6.23;5.60;;;10.70;99.90;;;;;;5048918;28;20450;-75
2024/02/15 02:50:03;;;;;;;8.60;5.43;;;10.70;99.90;;;;;;5040301;28;20207;-76
2024/02/15 02:52:29;;;;;;;6.30;5.27;;;10.70;99.90;;;;;;5047378;28;20207;-75
2024/02/15 02:54:54;;;;;;;6.07;4.80;;;10.60;99.90;;;;;;5036143;28;20212;-76
2024/02/15 02:57:20;;;;;;;6.57;5.07;;;10.60;99.90;;;;;;5027276;28;20216;-75
2024/02/15 02:59:47;;;;;;;6.40;5.50;;;10.60;99.90;;;;;;5021516;28;20229;-75
2024/02/15 03:02:13;;;;;;;8.63;5.27;;;10.50;99.90;;;;;;5045234;28;20207;-75
2024/02/15 03:04:39;;;;;;;6.20;5.17;;;10.50;99.90;;;;;;5041842;28;20999;-75
2024/02/15 03:07:05;;;;;;;6.67;5.30;;;10.50;99.90;;;;;;5033452;28;20239;-76
2024/02/15 03:09:31;;;;;;;8.53;5.43;;;10.40;99.90;;;;;;5039916;28;20897;-75
2024/02/15 03:11:57;;;;;;;6.30;5.17;;;10.40;99.90;;;;;;5050953;28;20273;-75
2024/02/15 03:14:22;;;;;;;5.67;4.90;;;10.40;99.90;;;;;;5051065;28;20693;-74
2024/02/15 03:16:48;;;;;;;5.23;4.40;;;10.20;99.90;;;;;;5045732;28;20315;-75
2024/02/15 03:19:14;;;;;;;5.90;5.37;;;10.20;99.90;;;;;;5064486;28;20211;-74
2024/02/15 03:21:41;;;;;;;6.83;5.40;;;10.20;99.90;;;;;;5046729;28;20215;-75
2024/02/15 03:24:07;;;;;;;4.67;4.17;;;10.30;99.90;;;;;;5037669;28;20680;-76
2024/02/15 03:26:36;;;;;;;6.00;4.60;;;10.30;99.90;;;;;;5036184;28;20459;-76
2024/02/15 03:29:03;;;;;;;6.87;5.50;;;10.30;99.90;;;;;;5044245;28;20215;-75
2024/02/15 03:31:30;;;;;;;5.60;5.10;;;10.30;99.90;;;;;;5052697;28;20446;-76
2024/02/15 03:33:57;;;;;;;5.90;5.07;;;10.20;99.90;;;;;;5050460;28;20454;-76
2024/02/15 03:36:23;;;;;;;6.13;4.83;;;10.20;99.90;;;;;;5038756;28;20447;-75
2024/02/15 03:38:48;;;;;;;9.90;5.70;;;10.20;99.90;;;;;;5050892;28;20993;-76
2024/02/15 03:41:14;;;;;;;6.47;5.87;;;10.30;99.90;;;;;;5058756;28;20214;-75
2024/02/15 03:43:40;;;;;;;7.03;5.60;;;10.20;99.90;;;;;;5047313;28;20298;-76
2024/02/15 03:46:08;;;;;;;7.20;5.50;;;10.30;99.90;;;;;;5049341;28;20255;-76
2024/02/15 03:48:34;;;;;;;10.17;6.60;;;10.30;99.90;;;;;;5044269;28;20743;-76
2024/02/15 03:51:01;;;;;;;7.73;5.83;;;10.10;99.90;;;;;;5041632;28;20466;-75
2024/02/15 03:53:30;;;;;;;8.00;5.57;;;10.20;99.90;;;;;;5047570;28;20241;-76
2024/02/15 03:55:56;;;;;;;8.37;6.00;;;10.20;99.90;;;;;;5050083;28;20453;-75
2024/02/15 03:58:21;;;;;;;5.27;4.67;;;10.20;99.90;;;;;;5043489;28;20488;-75
2024/02/15 04:00:47;;;;;;;10.40;5.97;;;10.20;99.90;;;;;;5040886;28;20466;-75
2024/02/15 04:03:13;;;;;;;6.40;4.67;;;10.20;99.90;;;;;;5055048;28;20284;-75
2024/02/15 04:05:39;;;;;;;6.73;4.77;;;10.20;99.90;;;;;;5043884;28;20270;-76
2024/02/15 04:08:05;;;;;;;5.07;4.43;;;10.20;99.90;;;;;;5056889;28;20976;-75
2024/02/15 04:10:31;;;;;;;9.30;5.07;;;10.20;99.90;;;;;;5046930;28;20294;-75
2024/02/15 04:12:57;;;;;;;5.63;4.83;;;10.20;99.90;;;;;;5041487;28;20212;-75
2024/02/15 04:15:24;;;;;;;6.73;4.93;;;10.20;99.90;;;;;;5046634;28;20251;-75
2024/02/15 04:17:56;;;;;;;5.27;4.77;;;10.20;99.90;;;;;;5036634;28;20460;-75
2024/02/15 04:20:22;;;;;;;6.80;4.90;;;10.20;99.90;;;;;;5052258;28;20458;-75
2024/02/15 04:22:50;;;;;;;6.93;5.10;;;10.20;99.90;;;;;;5042040;28;20465;-76
2024/02/15 04:25:17;;;;;;;7.80;5.30;;;10.20;99.90;;;;;;5031301;28;21062;-75
2024/02/15 04:27:46;;;;;;;8.00;5.53;;;10.20;99.90;;;;;;5044551;28;20458;-75
2024/02/15 04:30:12;;;;;;;7.43;5.03;;;10.20;99.90;;;;;;5036590;28;20453;-75
2024/02/15 04:32:38;;;;;;;5.70;4.93;;;10.20;99.90;;;;;;5042964;28;20458;-75
2024/02/15 04:35:05;;;;;;;7.03;5.33;;;10.20;99.90;;;;;;5034486;28;20231;-76
2024/02/15 04:37:31;;;;;;;8.20;5.20;;;10.20;99.90;;;;;;5037872;28;20224;-75
2024/02/15 04:39:58;;;;;;;9.63;5.87;;;10.20;99.90;;;;;;5036984;28;20461;-75
2024/02/15 04:42:26;;;;;;;5.20;4.70;;;10.20;99.90;;;;;;5046697;28;20443;-75
2024/02/15 04:44:53;;;;;;;9.57;5.40;;;10.20;99.90;;;;;;5038089;28;20454;-75
2024/02/15 04:47:20;;;;;;;8.83;6.33;;;10.10;99.90;;;;;;5041904;28;20478;-75
2024/02/15 04:49:46;;;;;;;12.40;6.60;;;10.10;99.90;;;;;;5050516;28;20488;-75
2024/02/15 04:52:11;;;;;;;7.20;6.37;;;10.10;99.90;;;;;;5042067;28;20481;-75
2024/02/15 04:54:37;;;;;;;10.27;6.70;;;10.10;99.90;;;;;;5035201;28;20702;-76
2024/02/15 04:57:03;;;;;;;13.33;6.70;;;10.10;99.90;;;;;;5031079;28;20219;-75
2024/02/15 04:59:29;;;;;;;8.57;6.17;;;10.10;99.90;;;;;;5039193;28;20499;-75
2024/02/15 05:01:56;;;;;;;9.03;6.07;;;10.10;99.90;;;;;;5021328;28;20207;-74
2024/02/15 05:04:22;;;;;;;6.73;6.00;;;10.20;99.90;;;;;;5067103;28;20223;-75
2024/02/15 05:06:48;;;;;;;9.87;6.00;;;10.20;99.90;;;;;;5052678;28;20538;-75
2024/02/15 05:09:14;;;;;;;6.07;5.50;;;10.20;99.90;;;;;;5046464;28;20544;-75
2024/02/15 05:11:46;;;;;;;8.60;6.17;;;10.20;99.90;;;;;;5049445;28;20216;-75
2024/02/15 05:14:23;;;;;;;7.80;4.97;;;10.10;99.90;;;;;;5046318;28;20234;-76
2024/02/15 05:16:49;;;;;;;7.93;5.77;;;10.20;99.90;;;;;;5043654;28;20462;-75
2024/02/15 05:19:18;;;;;;;10.40;6.90;;;10.20;99.90;;;;;;5024052;28;20863;-75
2024/02/15 05:21:45;;;;;;;10.90;7.70;;;10.20;99.90;;;;;;5031032;28;20450;-75
2024/02/15 05:24:15;;;;;;;9.50;7.07;;;10.10;99.90;;;;;;5041112;28;20458;-75
2024/02/15 05:26:46;;;;;;;9.37;7.10;;;10.20;99.90;;;;;;5034996;28;20486;-76
2024/02/15 05:29:12;;;;;;;9.90;7.67;;;10.20;99.90;;;;;;5040955;28;20470;-73
2024/02/15 05:31:39;;;;;;;9.97;7.40;;;10.20;99.90;;;;;;5057265;28;20831;-75
2024/02/15 05:34:11;;;;;;;12.73;7.13;;;10.20;99.90;;;;;;5033503;28;20461;-74
2024/02/15 05:36:38;;;;;;;11.00;5.77;;;10.20;99.90;;;;;;5034984;28;20544;-75
2024/02/15 05:39:04;;;;;;;6.90;5.50;;;10.20;99.90;;;;;;5023852;28;20450;-75
2024/02/15 05:41:34;;;;;;;9.80;7.27;;;10.20;99.90;;;;;;5038737;28;20462;-75
2024/02/15 05:44:00;;;;;;;10.53;7.13;;;10.10;99.90;;;;;;5056131;28;20534;-75
2024/02/15 05:46:27;;;;;;;13.63;8.37;;;10.20;99.90;;;;;;5046807;28;20473;-75
2024/02/15 05:48:53;;;;;;;10.93;7.67;;;10.20;99.90;;;;;;5021311;28;20462;-75
2024/02/15 05:51:19;;;;;;;11.80;7.10;;;10.20;99.90;;;;;;5040839;28;20473;-75
2024/02/15 05:53:45;;;;;;;8.87;7.33;;;10.20;99.90;;;;;;5046890;28;20212;-75
2024/02/15 05:56:12;;;;;;;10.10;6.90;;;10.20;99.90;;;;;;5044339;28;20220;-76
2024/02/15 05:58:39;;;;;;;9.37;7.90;;;10.20;99.90;;;;;;5033708;28;20463;-76
2024/02/15 06:01:06;;;;;;;10.37;7.27;;;10.20;99.90;;;;;;5038655;28;20461;-75
2024/02/15 06:03:33;;;;;;;11.73;7.30;;;10.20;99.90;;;;;;5036971;28;20965;-76
2024/02/15 06:06:01;;;;;;;14.63;9.20;;;10.20;99.90;;;;;;5040430;28;20520;-75
2024/02/15 06:08:30;;;;;;;9.47;7.70;;;10.20;99.90;;;;;;5041721;28;20500;-75
2024/02/15 06:10:56;;;;;;;14.13;9.27;;;10.20;99.90;;;;;;5048417;28;20458;-76
2024/02/15 06:13:23;;;;;;;12.30;7.93;;;10.20;99.90;;;;;;5046090;28;20456;-75
2024/02/15 06:15:52;;;;;;;9.83;7.63;;;10.20;99.90;;;;;;5046176;28;20236;-75
2024/02/15 06:18:29;;;;;;;12.83;8.37;;;10.20;99.90;;;;;;5037698;28;21248;-75
2024/02/15 06:20:59;;;;;;;10.87;8.83;;;10.20;99.90;;;;;;5041367;28;20478;-75
2024/02/15 06:23:26;;;;;;;10.10;7.50;;;10.20;99.90;;;;;;5050056;28;20518;-75
2024/02/15 06:25:53;;;;;;;8.90;6.80;;;10.20;99.90;;;;;;5050518;28;20991;-75
2024/02/15 06:39:44;;;;;;;8.87;6.13;;;10.20;99.90;;;;;;5049965;28;20468;-76
2024/02/15 06:42:20;;;;;;;7.83;6.20;;;10.20;99.90;;;;;;5025204;28;20611;-75
2024/02/15 06:44:47;;;;;;;7.40;5.70;;;10.20;99.90;;;;;;5047434;28;20545;-75
2024/02/15 06:47:15;;;;;;;9.23;6.50;;;10.20;99.90;;;;;;5048191;28;20211;-76
2024/02/15 06:49:41;;;;;;;9.43;6.63;;;10.20;99.90;;;;;;5050290;28;20438;-75
2024/02/15 06:52:11;;;;;;;6.90;6.20;;;10.20;99.90;;;;;;5046003;28;20974;-75
2024/02/15 06:54:41;;;;;;;10.90;6.90;;;10.10;99.90;;;;;;5049781;28;20797;-76
2024/02/15 06:57:07;;;;;;;7.33;6.17;;;10.10;99.90;;;;;;5052039;28;20600;-75
2024/02/15 06:59:34;;;;;;;9.30;6.40;;;10.10;99.90;;;;;;5055326;28;20449;-76
2024/02/15 07:02:00;;;;;;;10.60;7.00;;;10.10;99.90;;;;;;5045477;28;20446;-76
2024/02/15 07:04:27;;;;;;;8.20;6.30;;;10.00;99.90;;;;;;5051035;28;20446;-76
2024/02/15 07:06:54;;;;;;;6.70;5.37;;;10.10;99.90;;;;;;5040862;28;20477;-76
2024/02/15 07:09:21;;;;;;;9.30;6.20;;;10.10;99.90;;;;;;5060005;28;20467;-76
2024/02/15 07:11:47;;;;;;;11.13;6.90;;;10.10;99.90;;;;;;5052747;28;20465;-75
2024/02/15 07:14:13;;;;;;;7.03;5.93;;;10.10;99.90;;;;;;5046052;28;20449;-76
2024/02/15 07:16:40;;;;;;;12.93;7.50;;;10.10;99.90;;;;;;5031554;28;21047;-75
2024/02/15 07:19:05;;;;;;;8.60;6.40;;;10.10;99.90;;;;;;5055693;28;20457;-76
2024/02/15 07:21:31;;;;;;;7.90;6.83;;;10.10;99.90;;;;;;5038409;28;20446;-76
2024/02/15 07:23:58;;;;;;;8.07;6.23;;;10.10;99.90;;;;;;5028386;28;20651;-76
2024/02/15 07:26:25;;;;;;;8.93;5.53;;;10.10;99.90;;;;;;5034287;28;20953;-75
2024/02/15 07:28:54;;;;;;;9.27;6.20;;;10.20;99.90;;;;;;5056093;28;20460;-75
2024/02/15 07:31:23;;;;;;;12.63;6.40;;;10.20;99.90;;;;;;5044666;28;20458;-75
2024/02/15 07:33:53;;;;;;;7.70;5.73;;;10.20;99.90;;;;;;5042980;28;20980;-75
2024/02/15 07:36:21;;;;;;;7.90;6.00;;;10.20;99.90;;;;;;5044057;28;20990;-75
2024/02/15 07:38:51;;;;;;;7.77;4.70;;;10.20;99.90;;;;;;5064562;28;20542;-75
2024/02/15 07:41:22;;;;;;;6.10;4.40;;;10.20;99.90;;;;;;5036153;28;20451;-75
2024/02/15 07:43:48;;;;;;;6.00;4.80;;;10.20;99.90;;;;;;5047974;28;20444;-75
2024/02/15 07:46:16;;;;;;;6.20;4.20;;;10.20;99.90;;;;;;5041750;28;20473;-76
2024/02/15 07:48:46;;;;;;;5.03;3.97;;;10.20;99.90;;;;;;5045524;28;21060;-75
2024/02/15 07:51:19;;;;;;;8.20;4.70;;;10.20;99.90;;;;;;5054373;28;20573;-76
2024/02/15 07:53:45;;;;;;;7.53;4.77;;;10.20;99.90;;;;;;5047133;28;20484;-75
2024/02/15 07:56:13;;;;;;;14.67;4.63;;;10.20;99.90;;;;;;5052101;28;20454;-76
2024/02/15 07:58:41;;;;;;;5.30;4.47;;;10.20;99.90;;;;;;5058283;28;20477;-76
2024/02/15 08:01:09;;;;;;;6.10;4.87;;;10.20;99.90;;;;;;5062892;28;20439;-76
2024/02/15 08:03:35;;;;;;;8.27;5.47;;;10.20;99.90;;;;;;5048336;28;20458;-76
2024/02/15 08:06:06;;;;;;;5.30;4.10;;;10.20;99.90;;;;;;5044258;28;20470;-76
2024/02/15 08:08:34;;;;;;;8.93;5.07;;;10.30;99.90;;;;;;5048160;28;20485;-75
2024/02/15 08:11:02;;;;;;;8.70;4.60;;;10.30;99.90;;;;;;5048351;28;20451;-75
2024/02/15 08:13:29;;;;;;;7.23;5.30;;;10.30;99.90;;;;;;5053976;28;20506;-75
2024/02/15 08:15:55;;;;;;;8.93;6.20;;;10.30;99.90;;;;;;5050926;28;20458;-75
2024/02/15 08:18:21;;;;;;;10.83;7.27;;;10.30;99.90;;;;;;5041814;28;20481;-76
2024/02/15 08:20:47;;;;;;;7.60;6.60;;;10.30;99.90;;;;;;5052551;28;20467;-75
2024/02/15 08:23:13;;;;;;;11.90;8.23;;;10.30;99.90;;;;;;5045255;28;20477;-75
2024/02/15 08:25:42;;;;;;;7.73;5.77;;;10.30;99.90;;;;;;5037207;28;20307;-76
2024/02/15 08:28:07;;;;;;;11.83;6.90;;;10.30;99.90;;;;;;5031829;28;20212;-75
2024/02/15 08:30:33;;;;;;;11.03;8.27;;;10.30;99.90;;;;;;5038480;28;20464;-76
2024/02/15 08:32:59;;;;;;;12.10;8.57;;;10.30;99.90;;;;;;5050969;28;20255;-75
2024/02/15 08:35:25;;;;;;;10.03;7.33;;;10.30;99.90;;;;;;5029826;28;20221;-75
2024/02/15 08:37:52;;;;;;;11.20;8.00;;;10.30;99.90;;;;;;5041498;28;20231;-75
2024/02/15 08:40:24;;;;;;;10.27;7.63;;;10.40;99.90;;;;;;5053470;28;20262;-75
2024/02/15 08:42:50;;;;;;;12.67;9.30;;;10.40;99.90;;;;;;5034524;28;21051;-76
2024/02/15 08:45:15;;;;;;;13.77;8.80;;;10.40;99.90;;;;;;5044139;28;20541;-76
2024/02/15 08:47:42;;;;;;;11.80;8.47;;;10.40;99.90;;;;;;5039121;28;20599;-76
2024/02/15 08:50:09;;;;;;;10.27;9.00;;;10.50;99.90;;;;;;5047032;28;20247;-75
2024/02/15 08:52:39;;;;;;;11.40;8.30;;;10.50;99.90;;;;;;5020099;28;20547;-76
2024/02/15 08:55:09;;;;;;;11.17;8.70;;;10.50;99.90;;;;;;5045886;28;20545;-75
2024/02/15 08:57:36;;;;;;;10.40;9.10;;;10.50;99.90;;;;;;5038121;28;20481;-76
2024/02/15 09:00:12;;;;;;;10.67;8.87;;;10.50;99.90;;;;;;5039904;28;20562;-75
2024/02/15 09:02:40;;;;;;;9.80;7.80;;;10.50;99.90;;;;;;5037509;28;20461;-76
2024/02/15 09:05:06;;;;;;;17.83;9.77;;;10.60;99.90;;;;;;5045099;28;20936;-75
2024/02/15 09:07:32;;;;;;;14.50;9.10;;;10.60;99.90;;;;;;5035991;28;20462;-75
2024/02/15 09:09:58;;;;;;;20.10;10.03;;;10.60;99.90;;;;;;5047363;28;20447;-75
2024/02/15 09:12:24;;;;;;;13.80;10.07;;;10.60;99.90;;;;;;5042537;28;20911;-75
2024/02/15 09:14:50;;;;;;;14.97;9.20;;;10.70;99.90;;;;;;5033987;28;20451;-75
2024/02/15 09:17:16;;;;;;;17.77;9.13;;;10.70;99.90;;;;;;5030509;28;20963;-75
2024/02/15 09:19:41;;;;;;;10.23;7.57;;;10.70;99.90;;;;;;5041448;28;20326;-75
2024/02/15 09:22:07;;;;;;;9.50;6.27;;;10.70;99.90;;;;;;5023314;28;20244;-75
2024/02/15 09:24:33;;;;;;;9.57;6.27;;;10.70;99.90;;;;;;5033787;28;20682;-76
2024/02/15 09:27:02;;;;;;;6.90;5.70;;;10.70;99.90;;;;;;5039538;28;20227;-75
2024/02/15 09:29:34;;;;;;;9.27;5.90;;;10.80;99.90;;;;;;5035161;28;20467;-76
2024/02/15 09:32:02;;;;;;;7.47;4.70;;;10.80;99.90;;;;;;5056277;28;20804;-75
2024/02/15 09:34:27;;;;;;;7.83;5.10;;;10.80;99.90;;;;;;5032426;28;20592;-75
2024/02/15 09:36:53;;;;;;;7.13;5.27;;;10.80;99.90;;;;;;5021354;28;20533;-76
2024/02/15 09:39:19;;;;;;;8.57;5.33;;;10.80;99.90;;;;;;5045525;28;20219;-76
2024/02/15 09:41:45;;;;;;;6.60;4.80;;;10.90;99.90;;;;;;5048485;28;20220;-76
2024/02/15 09:44:13;;;;;;;6.43;4.40;;;10.90;99.90;;;;;;5045949;28;20212;-75
2024/02/15 09:46:46;;;;;;;6.03;4.40;;;10.90;99.90;;;;;;5036515;28;20328;-76
2024/02/15 09:49:13;;;;;;;4.77;4.10;;;10.90;99.90;;;;;;5039826;28;20567;-75
2024/02/15 09:51:40;;;;;;;6.93;4.43;;;10.90;99.90;;;;;;5054450;28;20498;-76
2024/02/15 09:54:08;;;;;;;5.47;4.53;;;11.00;99.90;;;;;;5042422;28;20462;-75
2024/02/15 09:56:35;;;;;;;7.10;4.30;;;11.10;99.90;;;;;;5046913;28;20837;-76
2024/02/15 09:59:01;;;;;;;6.10;4.60;;;11.20;99.90;;;;;;5039139;28;20466;-75
2024/02/15 10:01:30;;;;;;;5.87;4.63;;;11.30;99.90;;;;;;5050184;28;20515;-76
2024/02/15 10:03:59;;;;;;;5.33;4.47;;;11.30;99.90;;;;;;5028766;28;20454;-76
2024/02/15 10:06:24;;;;;;;6.37;5.13;;;11.40;99.90;;;;;;5024629;28;20637;-75
2024/02/15 10:08:50;;;;;;;6.63;4.57;;;11.50;99.90;;;;;;5044449;28;20549;-76
2024/02/15 10:11:16;;;;;;;5.57;4.37;;;11.50;99.90;;;;;;5044571;28;20654;-74
2024/02/15 10:13:44;;;;;;;7.63;5.23;;;11.60;99.90;;;;;;5024934;28;20220;-75
2024/02/15 10:16:24;;;;;;;19.20;11.07;;;11.60;99.90;;;;;;5044419;28;20212;-77
2024/02/15 10:18:50;;;;;;;19.80;13.03;;;11.70;99.90;;;;;;5032754;28;20546;-76
2024/02/15 10:21:30;;;;;;;17.53;12.20;;;11.80;99.90;;;;;;5044740;28;20541;-75
2024/02/15 10:24:05;;;;;;;14.90;10.40;;;11.80;99.90;;;;;;5046790;28;20222;-76
2024/02/15 10:26:32;;;;;;;13.30;11.03;;;12.00;99.90;;;;;;5046202;28;20468;-76
2024/02/15 10:29:11;;;;;;;16.70;11.60;;;12.10;99.90;;;;;;5058319;28;20464;-76
2024/02/15 10:31:52;;;;;;;14.57;11.30;;;12.20;99.90;;;;;;5032774;28;20867;-76
2024/02/15 10:34:18;;;;;;;10.27;8.07;;;12.30;99.90;;;;;;5045794;28;20464;-76
2024/02/15 10:36:45;;;;;;;10.90;7.80;;;12.40;99.90;;;;;;5043392;28;20549;-76
2024/02/15 10:39:16;;;;;;;12.20;9.10;;;12.40;99.90;;;;;;5043010;28;20519;-76
2024/02/15 10:41:53;;;;;;;14.30;10.40;;;12.40;99.90;;;;;;5035603;28;20537;-76
2024/02/15 10:44:22;;;;;;;9.47;8.20;;;12.50;99.90;;;;;;5051198;28;20528;-76
2024/02/15 10:46:52;;;;;;;8.30;7.27;;;12.50;99.90;;;;;;5034420;28;20475;-76
2024/02/15 10:49:20;;;;;;;10.93;8.13;;;12.50;99.90;;;;;;5047039;28;20458;-75
2024/02/15 10:51:51;;;;;;;10.50;8.00;;;12.60;99.90;;;;;;5042481;28;21004;-75
2024/02/15 10:54:32;;;;;;;12.97;9.10;;;12.60;99.90;;;;;;5037615;28;20494;-76
2024/02/15 10:57:04;;;;;;;11.47;9.83;;;12.60;99.90;;;;;;5043154;28;20489;-76
2024/02/15 10:59:42;;;;;;;9.60;8.13;;;12.60;99.90;;;;;;5041810;28;20473;-76
2024/02/15 11:02:26;;;;;;;10.13;8.27;;;12.70;99.90;;;;;;5037859;28;20930;-75
2024/02/15 11:04:56;;;;;;;13.77;9.17;;;12.80;99.90;;;;;;5052662;28;20910;-76
2024/02/15 11:07:28;;;;;;;9.40;7.80;;;12.80;99.90;;;;;;5024587;28;20485;-76
2024/02/15 11:09:55;;;;;;;9.60;7.20;;;12.90;99.90;;;;;;5037545;28;20493;-75
2024/02/15 11:12:23;;;;;;;12.13;7.47;;;12.90;99.90;;;;;;5028186;28;20551;-75
2024/02/15 11:14:51;;;;;;;7.23;6.33;;;12.90;99.90;;;;;;5038866;28;20462;-76
2024/02/15 11:17:39;;;;;;;8.70;6.77;;;13.00;99.90;;;;;;5044482;28;20450;-75
2024/02/15 11:20:10;;;;;;;7.03;5.93;;;13.00;99.90;;;;;;5020065;28;20450;-76
2024/02/15 11:22:37;;;;;;;6.23;5.40;;;13.00;99.90;;;;;;5042593;28;20462;-76
2024/02/15 11:25:11;;;;;;;6.20;4.97;;;13.00;99.90;;;;;;5041627;28;20446;-75
2024/02/15 11:27:39;;;;;;;6.00;5.40;;;12.80;99.90;;;;;;5038555;28;20470;-76
2024/02/15 11:30:15;;;;;;;6.57;5.60;;;12.90;99.90;;;;;;5045271;28;20446;-76
2024/02/15 11:32:44;;;;;;;8.20;6.20;;;13.00;99.90;;;;;;5042011;28;20472;-76
2024/02/15 11:35:11;;;;;;;7.63;5.10;;;13.10;99.90;;;;;;5043769;28;20470;-76
2024/02/15 11:40:16;;;;;;;8.50;6.90;;;13.10;99.90;;;;;;5042989;28;20466;-74
2024/02/15 11:42:43;;;;;;;6.00;5.40;;;13.10;99.90;;;;;;5037347;28;21074;-75
2024/02/15 11:45:08;;;;;;;7.40;6.60;;;13.20;99.90;;;;;;5041612;28;20450;-76
2024/02/15 11:47:39;;;;;;;8.07;5.67;;;13.20;99.90;;;;;;5039513;28;20477;-77
2024/02/15 11:50:08;;;;;;;8.47;6.30;;;13.10;99.90;;;;;;5055953;28;20219;-76
2024/02/15 11:52:34;;;;;;;9.93;5.97;;;13.20;99.90;;;;;;5034363;28;20482;-76
2024/02/15 11:55:09;;;;;;;6.20;5.00;;;13.20;99.90;;;;;;5040308;28;20482;-76
2024/02/15 11:57:47;;;;;;;6.70;5.50;;;13.20;99.90;;;;;;5032729;28;20228;-76
2024/02/15 12:19:56;;;;;;;10.63;7.10;;;13.40;99.90;;;;;;5043041;28;20453;-76
2024/02/15 12:22:30;;;;;;;9.93;6.90;;;13.50;99.90;;;;;;5037860;28;20527;-75
2024/02/15 12:25:11;;;;;;;7.37;6.10;;;13.50;99.90;;;;;;5052677;28;20468;-76
2024/02/15 12:27:38;;;;;;;7.10;5.37;;;13.50;99.90;;;;;;5038787;28;20492;-76
2024/02/15 12:30:06;;;;;;;5.47;4.97;;;13.60;99.90;;;;;;5039556;28;20488;-76
2024/02/15 12:32:32;;;;;;;6.17;5.27;;;13.60;99.90;;;;;;5025572;28;20529;-75
2024/02/15 12:35:20;;;;;;;8.10;5.20;;;13.60;99.90;;;;;;5040179;28;20458;-76
2024/02/15 12:37:46;;;;;;;8.10;5.60;;;13.60;99.90;;;;;;5036988;28;20478;-75
2024/02/15 12:40:19;;;;;;;9.47;6.03;;;13.60;99.90;;;;;;5037587;28;20446;-76
2024/02/15 12:42:46;;;;;;;8.63;5.30;;;13.60;99.90;;;;;;5021767;28;20462;-76
2024/02/15 12:45:20;;;;;;;6.90;5.27;;;13.70;99.90;;;;;;5049097;28;20459;-75
2024/02/15 12:47:53;;;;;;;7.33;5.00;;;13.70;99.90;;;;;;5054514;28;20660;-76
2024/02/15 12:50:23;;;;;;;5.93;4.10;;;13.70;99.90;;;;;;5058176;28;20461;-75
2024/02/15 12:52:50;;;;;;;6.67;5.40;;;13.70;99.90;;;;;;5052032;28;20484;-76
2024/02/15 12:55:21;;;;;;;10.33;5.00;;;13.80;99.90;;;;;;5040903;28;20556;-76
2024/02/15 12:57:55;;;;;;;9.50;5.30;;;13.80;99.90;;;;;;5038909;28;20477;-76
2024/02/15 13:00:31;;;;;;;5.83;4.17;;;13.80;99.90;;;;;;5034824;28;20819;-77
2024/02/15 13:02:57;;;;;;;5.27;4.10;;;13.80;99.90;;;;;;5038676;28;20469;-75
2024/02/15 13:05:26;;;;;;;10.10;3.90;;;13.80;99.90;;;;;;5041138;28;20470;-77
2024/02/15 13:07:54;;;;;;;4.20;3.40;;;13.80;99.90;;;;;;5038854;28;20470;-76
2024/02/15 13:10:21;;;;;;;3.50;3.20;;;13.90;99.90;;;;;;5041209;28;20450;-75
2024/02/15 13:12:47;;;;;;;3.37;2.70;;;13.90;99.90;;;;;;5035163;28;20492;-76
2024/02/15 13:15:15;;;;;;;5.37;3.10;;;13.90;99.90;;;;;;5038759;28;20446;-76
2024/02/15 13:17:45;;;;;;;2.97;2.60;;;13.90;99.90;;;;;;5020893;28;20503;-76
2024/02/15 13:20:13;;;;;;;7.03;2.20;;;13.90;99.90;;;;;;5039889;28;20840;-76